Aeroporto :
LOGIN :

Iscrizione | Disclaimer

   EN    FR    IT 

 










Sommario :    VFR   VFR Marginale   IFR   IFR Intensivo   IFR Molto Intensivo
Visibilità : 
Base nubi : 
>= 8 km
>= 3000ft
5 / 8 km
1000 / 3000 ft
1500m / 5 km
500 / 1000 ft
800 / 1500m
200 / 500 ft
< 800m
< 200 ft
Simboli :   Temporali  Nebbia  Neve Forte  Precipitazioni Forti  Vento > 20 kt
SIGMETs :   Varie  Temporali  Ghiacco  Turbolenza  Onda orograficha  Ceneri Vulcaniche






- Altitudine del aeroporto : 86 ft


LERT - Rota Navy

ULTIMO METAR :
  • 300700Z 13005KT 9999 FEW032 13/12 Q1013 NOSIG

METARs OBSOLETI :
  • 300600Z 11004KT 9999 FEW030 11/10 Q1013 NOSIG
  • 300500Z 09004KT 9999 FEW025 SCT042 11/10 Q1013 NOSIG

TAF TAF LERT
Valido dal 30 a 06 ore il 30 a 15 ore UTC


300500Z 3006/3015 VRB02KT 9999 FEW040
PROB30
TEMPO 3006/3009 3000 BR BKN010
BECMG 3010/3012 17010KT



MetMap, La meteo Aeronautica in un colpo d'occhio ! - Copyright ORBIFLY Dicembre 2007 - Disclaimer

ORBIFLY MET'MAP TEAM :

Programmazione e sviluppo : Alexandra Zaïnal
Concezione : Baudouin d'Aumeries
Aiuto per la programmazione : Marc-Olivier Méhu
Supporto tecnico e logistico : Manuel Goepfert
Aiuto per la traduzione : Arnaldo La Scala

Contatto : metmap@orbifly.com




FONTI E CREDITI :

   NOAA